Flight Track Log - Related Links

Times and Time Zones

All times are in EDT time to prevent confusion due to time zone crossing. See the FLG3757 flight status page for this flight to view local times or setup timezone preferences in your user account.

Time Position Orientation Groundspeed Altitude Reporting Facility
EDT Latitude Longitude Course Direction KTS MPH feet Rate Location/Type
Thu 06:07:54 AM 42.2367 -76.0111 294° West 168 193 3,000  Level New York Center
Thu 06:08:54 AM 42.2606 -76.0831 294° West 191 220 5,700 2,300 Climbing New York Center
Thu 06:09:54 AM 42.2803 -76.1519 291° West 223 257 7,600 2,246 Climbing New York Center
Thu 06:11:45 AM 42.3278 -76.3161 291° West 255 293 12,100 2,386 Climbing Cleveland Center
Thu 06:12:45 AM 42.3519 -76.4092 289° West 268 308 14,400 2,083 Climbing Cleveland Center
Thu 06:13:46 AM 42.3764 -76.5025 290° West 266 306 16,300 1,623 Climbing Cleveland Center
Thu 06:14:47 AM 42.4042 -76.6025 291° West 278 320 17,700 1,082 Climbing Cleveland Center
Thu 06:15:48 AM 42.4325 -76.7117 289° West 299 344 18,500 793 Climbing Cleveland Center
Thu 06:16:48 AM 42.4631 -76.8283 290° West 323 372 19,300 893 Climbing Cleveland Center
Thu 06:17:49 AM 42.4961 -76.9489 290° West 340 391 20,300 934 Climbing Cleveland Center
Thu 06:18:50 AM 42.5283 -77.0697 290° West 342 394 21,200 639 Climbing Cleveland Center
Thu 06:19:51 AM 42.5386 -77.2019 276° West 359 413 21,600 446 Climbing Cleveland Center
Thu 06:20:51 AM 42.5469 -77.3375 275° West 361 415 22,100 545 Climbing Cleveland Center
Thu 06:21:52 AM 42.5558 -77.4833 275° West 369 425 22,700 590 Climbing Cleveland Center
Thu 06:22:53 AM 42.5636 -77.6233 274° West 372 428 23,300 639 Climbing Cleveland Center
Thu 06:23:54 AM 42.5728 -77.7628 275° West 372 428 24,000 344 Climbing Cleveland Center
Thu 06:24:55 AM 42.5803 -77.9097 274° West 380 437 24,000  Level Cleveland Center
Thu 06:25:56 AM 42.5883 -78.0575 274° West 390 449 24,000  Level Cleveland Center
Thu 06:26:57 AM 42.5964 -78.2075 274° West 396 456 24,000  Level Cleveland Center
Thu 06:27:57 AM 42.6039 -78.3583 274° West 400 460 24,000  Level Cleveland Center
Thu 06:28:58 AM 42.6114 -78.5092 274° West 402 463 24,000  Level Cleveland Center
Thu 06:29:59 AM 42.6225 -78.6931 275° West 405 466 24,000  Level Cleveland Center
Thu 06:31:00 AM 42.6289 -78.8450 273° West 405 466 24,000  Level Cleveland Center
Thu 06:32:01 AM 42.6361 -78.9964 274° West 402 463 24,000  Level Cleveland Center
Thu 06:33:02 AM 42.6433 -79.1475 274° West 402 463 24,000  Level Cleveland Center
Thu 06:34:03 AM 42.6497 -79.3000 273° West 405 466 24,000  Level Cleveland Center
Thu 06:35:04 AM 42.6561 -79.4514 273° West 404 465 24,000  Level Cleveland Center
Thu 06:36:05 AM 42.6622 -79.6033 273° West 405 466 24,000  Level Cleveland Center
Thu 06:37:06 AM 42.6669 -79.7572 272° West 406 467 24,000  Level Cleveland Center
Thu 06:38:07 AM 42.6733 -79.9078 273° West 403 464 24,000  Level Cleveland Center
Thu 06:39:08 AM 42.6753 -80.0622 271° West 406 467 24,000  Level Cleveland Center
Thu 06:40:10 AM 42.6822 -80.2147 274° West 403 464 24,000  Level Cleveland Center
Thu 06:41:11 AM 42.6872 -80.3689 273° West 404 465 24,000  Level Cleveland Center
Thu 06:42:12 AM 42.6928 -80.5222 273° West 403 464 24,000  Level Cleveland Center
Thu 06:43:13 AM 42.6994 -80.7011 273° West 401 461 24,000  Level Cleveland Center
Thu 06:44:14 AM 42.7039 -80.8586 272° West 412 474 24,000  Level Cleveland Center
Thu 06:45:15 AM 42.6906 -81.0083 263° West 399 459 24,000  Level Cleveland Center
Thu 06:46:16 AM 42.6742 -81.1581 262° West 399 459 24,000  Level Cleveland Center
Thu 06:47:18 AM 42.6564 -81.3069 261° West 396 456 24,000  Level Cleveland Center
Thu 06:48:19 AM 42.6394 -81.4567 261° West 397 457 24,000  Level Cleveland Center
Thu 06:49:20 AM 42.6214 -81.6036 261° West 394 453 24,000 -780 Level Cleveland Center
Thu 06:50:22 AM 42.6047 -81.7531 261° West 398 458 22,400 -1,756 Descending Cleveland Center
Thu 06:51:23 AM 42.5864 -81.8983 260° West 392 451 20,400 -1,967 Descending Cleveland Center
Thu 06:52:24 AM 42.5694 -82.0422 261° West 390 449 18,400 -1,951 Descending Cleveland Center
Thu 06:53:26 AM 42.5519 -82.1844 261° West 385 443 16,400 -2,118 Descending Cleveland Center
Thu 06:53:32 AM 42.5497 -82.2122 264° West 381 438 16,000 -2,291 Descending Cleveland Center
Thu 06:54:21 AM 42.5358 -82.3236 260° West 352 405 14,300 -1,745 Descending Cleveland Center
Thu 06:54:27 AM 42.5347 -82.3178 104° East 368 423 14,400 -1,909 Climbing Cleveland Center
Thu 06:55:27 AM 42.5175 -82.4686 261° West 348 400 12,200 -1,967 Descending Cleveland Center
Thu 06:55:28 AM 42.5186 -82.4469 86° East 355 409 12,400 -492 Climbing Cleveland Center
Thu 06:56:28 AM 42.4919 -82.5925 256° West 329 379 11,700 -677 Descending Cleveland Center
Thu 06:56:30 AM 42.4889 -82.5928 184° South 344 396 11,700 -1,000 Level Cleveland Center
Thu 06:57:28 AM 42.4578 -82.6900 247° West 260 299 10,700 -984 Descending Cleveland Center
Thu 06:57:31 AM 42.4564 -82.6889 149° Southeast 294 338 10,700 -1,672 Level Cleveland Center
Thu 06:58:29 AM 42.4269 -82.7706 244° Southwest 240 276 9,000 -1,672 Descending Cleveland Center
Thu 06:58:32 AM 42.4269 -82.7717 270° West 259 298 9,000 -1,837 Level Cleveland Center
Thu 06:59:18 AM 42.4194 -82.8433 262° West 241 277 7,500 -2,226 Descending Cleveland Center
Thu 06:59:34 AM 42.4144 -82.8606 249° West 243 280 6,700 -1,377 Descending Cleveland Center
Thu 07:00:19 AM 42.4019 -82.9397 258° West 255 293 6,100 -689 Descending Cleveland Center
Thu 07:00:35 AM 42.3997 -82.9528 257° West 249 287 6,000 -91 Descending Cleveland Center
Thu 07:01:25 AM 42.3836 -83.0447 257° West 261 300 6,000  Level Cleveland Center
Thu 07:01:37 AM 42.3825 -83.0475 242° Southwest 256 295 6,000 -1,377 Level Cleveland Center
Thu 07:02:26 AM 42.3681 -83.1414 258° West 258 297 4,600 -1,377 Descending Cleveland Center
Thu 07:02:38 AM 42.3656 -83.1419 189° South 260 299 4,600 -1,091 Level Cleveland Center
Thu 07:03:21 AM 42.3458 -83.2117 249° West 207 238 3,600 -1,082 Descending Cleveland Center
Thu 07:03:39 AM 42.3417 -83.2192 233° Southwest 222 255 3,500 -885 Descending Cleveland Center
Thu 07:04:22 AM 42.3081 -83.2686 227° Southwest 186 214 2,700 -871 Descending Cleveland Center
Thu 07:04:41 AM 42.3025 -83.2706 195° South 206 237 2,600 -787 Descending Cleveland Center
Thu 07:05:23 AM 42.2681 -83.2969 210° Southwest 138 159 1,900 -984 Descending Cleveland Center
Thu 07:05:42 AM 42.2578 -83.3050 210° Southwest 171 197 1,600 -800 Descending Cleveland Center
Thu 07:06:23 AM 42.2367 -83.3236 213° Southwest 131 151 1,100 -387 Descending Cleveland Center
Thu 07:06:44 AM 42.2294 -83.3253 190° South 153 176 1,200 286 Climbing Cleveland Center
Thu 07:08:00 AM 42.2124 -83.3534 236° Southwest  Level Estimated
Thu 07:15:00 AM 42.2124 -83.3534 236° Southwest  Level Estimated
Thu 07:16:00 AM 42.2124 -83.3534 236° Southwest  Level Estimated

Login

Don't have an account? Register now (free) for customized features, flight alerts, and more!